Time;durP1;ratioP1;P1;durP2;ratioP2;P2;SDS_P1;SDS_P2;PMS_P1;PMS_P2;Temp;Humidity;BMP_temperature;BMP_pressure;BME280_temperature;BME280_humidity;BME280_pressure;Samples;Min_cycle;Max_cycle;Signal;HPM_P1;HPM_P2
2021/09/06 00:01:11;;;;;;;1.92;1.33;;;;;;;20.50;58.73;101001.09;4961015;28;20042;-81
2021/09/06 00:03:36;;;;;;;1.67;1.58;;;;;;;20.46;58.95;101002.84;4964238;28;20029;-78
2021/09/06 00:06:02;;;;;;;1.90;1.80;;;;;;;20.44;59.11;101008.75;4975503;28;20094;-78
2021/09/06 00:08:28;;;;;;;1.92;1.83;;;;;;;20.44;58.60;101005.16;4970921;28;20138;-79
2021/09/06 00:11:08;;;;;;;1.42;1.42;;;;;;;20.45;58.76;101009.56;4976094;28;20034;-79
2021/09/06 00:13:35;;;;;;;2.15;2.05;;;;;;;20.44;59.18;101002.38;4972038;28;20058;-77
2021/09/06 00:16:01;;;;;;;2.22;2.13;;;;;;;20.41;59.01;101014.94;4979372;28;20017;-77
2021/09/06 00:18:27;;;;;;;2.47;2.15;;;;;;;20.38;58.88;101007.25;4972404;28;20320;-75
2021/09/06 00:20:56;;;;;;;3.35;3.15;;;;;;;20.36;59.56;101002.00;4985746;28;20042;-76
2021/09/06 00:23:22;;;;;;;1.92;1.83;;;;;;;20.34;59.19;101012.63;4976387;28;20030;-76
2021/09/06 00:25:47;;;;;;;1.40;1.30;;;;;;;20.29;59.23;101001.63;4992638;28;20041;-75
2021/09/06 00:28:13;;;;;;;2.05;1.95;;;;;;;20.30;59.76;101013.59;4988593;28;20393;-74
2021/09/06 00:30:40;;;;;;;1.63;1.52;;;;;;;20.27;59.66;101017.81;4973211;28;20045;-74
2021/09/06 00:33:05;;;;;;;2.58;1.98;;;;;;;20.22;60.05;101012.38;4993574;28;20469;-76
2021/09/06 00:35:31;;;;;;;3.13;2.00;;;;;;;20.15;59.70;101015.63;4992472;28;20041;-75
2021/09/06 00:37:57;;;;;;;4.45;4.22;;;;;;;20.15;60.17;101020.31;4974355;28;20027;-76
2021/09/06 00:40:22;;;;;;;3.53;3.33;;;;;;;20.09;59.99;101029.94;4976983;28;20031;-75
2021/09/06 00:42:48;;;;;;;6.07;5.75;;;;;;;20.04;60.37;101026.13;5001076;28;20030;-75
2021/09/06 00:45:13;;;;;;;5.22;4.93;;;;;;;19.97;60.72;101025.75;4995265;28;20080;-76
2021/09/06 00:47:39;;;;;;;3.42;3.13;;;;;;;19.92;60.75;101019.50;4990362;28;20193;-75
2021/09/06 00:50:09;;;;;;;2.85;2.75;;;;;;;19.89;60.90;101020.97;4993385;28;20496;-78
2021/09/06 00:52:35;;;;;;;2.60;2.50;;;;;;;19.87;60.80;101006.59;4990069;28;20069;-76
2021/09/06 00:55:05;;;;;;;3.22;3.03;;;;;;;19.88;60.83;101013.78;4979333;28;20030;-75
2021/09/06 00:57:30;;;;;;;2.75;2.65;;;;;;;19.85;60.47;101014.41;4998227;28;20046;-77
2021/09/06 00:59:56;;;;;;;2.33;2.13;;;;;;;19.83;61.20;101014.72;5001814;28;20027;-76
2021/09/06 01:02:22;;;;;;;2.05;1.95;;;;;;;19.79;60.68;101016.50;4998585;28;20061;-76
2021/09/06 01:04:47;;;;;;;2.88;2.03;;;;;;;19.78;60.48;101008.44;4958825;28;20098;-75
2021/09/06 01:07:13;;;;;;;1.77;1.67;;;;;;;19.75;61.00;101009.09;4988689;28;20034;-76
2021/09/06 01:09:39;;;;;;;1.90;1.80;;;;;;;19.75;61.23;101014.63;4976129;28;20094;-75
2021/09/06 01:12:05;;;;;;;2.05;1.95;;;;;;;19.74;61.03;101018.53;4976673;28;20022;-75
2021/09/06 01:14:30;;;;;;;2.30;1.95;;;;;;;19.73;60.94;101017.72;4994964;28;20480;-75
2021/09/06 01:16:56;;;;;;;2.47;2.38;;;;;;;19.68;60.96;101015.06;4987052;28;20030;-75
2021/09/06 01:19:22;;;;;;;3.40;3.20;;;;;;;19.61;61.54;101009.94;4972589;28;20034;-76
2021/09/06 01:21:47;;;;;;;4.07;3.35;;;;;;;19.57;61.26;101014.47;4972760;28;20555;-75
2021/09/06 01:24:18;;;;;;;2.15;2.05;;;;;;;19.55;61.09;101013.97;4988105;28;20648;-75
2021/09/06 01:26:47;;;;;;;2.03;1.92;;;;;;;19.53;61.89;101007.91;4988350;28;20014;-78
2021/09/06 01:29:13;;;;;;;4.28;2.97;;;;;;;19.53;61.88;101010.69;4976171;28;20481;-77
2021/09/06 01:31:39;;;;;;;2.88;2.70;;;;;;;19.50;61.73;101008.53;4995238;28;20057;-77
2021/09/06 01:34:06;;;;;;;2.10;2.00;;;;;;;19.52;61.26;101009.03;4994477;28;20037;-77
2021/09/06 01:36:32;;;;;;;1.55;1.55;;;;;;;19.51;61.54;101015.75;4977600;28;20566;-71
2021/09/06 01:38:58;;;;;;;1.83;1.73;;;;;;;19.48;61.80;101010.81;4987207;28;20096;-73
2021/09/06 01:41:23;;;;;;;2.67;2.50;;;;;;;19.43;61.60;101013.69;4995214;28;20030;-72
2021/09/06 01:43:49;;;;;;;2.70;2.60;;;;;;;19.39;61.84;101018.22;4990772;28;20037;-72
2021/09/06 01:46:14;;;;;;;3.15;2.88;;;;;;;19.33;62.24;101023.88;4973100;28;20042;-72
2021/09/06 01:48:40;;;;;;;3.40;3.17;;;;;;;19.30;62.06;101021.75;4990129;28;20034;-72
2021/09/06 01:51:05;;;;;;;4.93;4.45;;;;;;;19.26;62.27;101019.88;4993606;28;20376;-71
2021/09/06 01:53:31;;;;;;;3.60;3.40;;;;;;;19.18;62.45;101010.34;4973405;28;20057;-73
2021/09/06 01:55:56;;;;;;;3.10;2.90;;;;;;;19.14;62.45;101012.09;4990049;28;20030;-72
2021/09/06 01:58:22;;;;;;;2.50;2.30;;;;;;;19.08;62.18;101010.56;4979920;28;20449;-72
2021/09/06 02:00:48;;;;;;;4.38;4.13;;;;;;;19.08;62.51;101013.34;4986429;28;20038;-74
2021/09/06 02:03:13;;;;;;;6.75;6.13;;;;;;;19.00;63.04;101007.38;4987562;28;20026;-73
2021/09/06 02:05:39;;;;;;;6.72;6.28;;;;;;;18.92;62.89;101005.31;4990611;28;20535;-71
2021/09/06 02:08:04;;;;;;;7.15;6.55;;;;;;;18.86;63.48;101006.56;4987280;28;20429;-71
2021/09/06 02:10:30;;;;;;;5.25;4.95;;;;;;;18.79;63.17;101006.13;4995707;28;20113;-73
2021/09/06 02:12:55;;;;;;;3.50;3.35;;;;;;;18.76;63.13;101006.75;4972075;28;20038;-73
2021/09/06 02:15:21;;;;;;;2.45;2.30;;;;;;;18.73;63.39;101012.91;4993179;28;20038;-72
2021/09/06 02:17:46;;;;;;;2.83;2.72;;;;;;;18.63;63.09;101003.66;4975754;28;21292;-73
2021/09/06 02:20:12;;;;;;;2.33;2.22;;;;;;;18.64;63.18;101013.59;4981672;28;20038;-72
2021/09/06 02:22:38;;;;;;;3.35;3.15;;;;;;;18.62;63.48;101012.28;4996230;28;20472;-73
2021/09/06 02:25:04;;;;;;;5.38;5.03;;;;;;;18.58;63.78;101006.53;4977354;28;20049;-73
2021/09/06 02:27:30;;;;;;;5.18;4.82;;;;;;;18.57;63.68;101015.94;4992728;28;20051;-72
2021/09/06 02:29:55;;;;;;;4.20;4.00;;;;;;;18.57;63.86;101015.94;4987965;28;20029;-70
2021/09/06 02:32:21;;;;;;;3.63;3.20;;;;;;;18.55;64.16;101007.13;4998820;28;20034;-72
2021/09/06 02:34:46;;;;;;;5.43;4.20;;;;;;;18.57;63.43;101007.63;4989907;28;20018;-72
2021/09/06 02:37:12;;;;;;;2.75;2.65;;;;;;;18.59;63.42;101005.41;4994681;28;20054;-74
2021/09/06 02:39:37;;;;;;;3.00;2.83;;;;;;;18.61;63.99;101005.09;4991934;28;20022;-70
2021/09/06 02:42:04;;;;;;;1.70;1.60;;;;;;;18.59;63.62;101002.63;4992783;28;20044;-71
2021/09/06 02:44:30;;;;;;;2.30;2.20;;;;;;;18.59;63.52;100999.84;4995490;28;20058;-71
2021/09/06 02:46:56;;;;;;;1.40;1.30;;;;;;;18.59;63.92;100991.56;4992359;28;20125;-70
2021/09/06 02:49:22;;;;;;;1.40;1.38;;;;;;;18.61;63.18;100999.56;4990474;28;20088;-71
2021/09/06 02:51:47;;;;;;;1.77;1.67;;;;;;;18.58;63.33;100995.44;4992701;28;20026;-71
2021/09/06 02:54:15;;;;;;;2.55;2.45;;;;;;;18.59;63.49;101002.63;4974365;28;20034;-72
2021/09/06 02:56:41;;;;;;;2.22;2.13;;;;;;;18.58;63.51;100992.66;4990653;28;20153;-72
2021/09/06 02:59:06;;;;;;;1.48;1.38;;;;;;;18.56;63.40;100994.09;4993188;28;20030;-73
2021/09/06 03:01:32;;;;;;;3.17;3.00;;;;;;;18.53;63.31;100987.25;4958836;28;20045;-70
2021/09/06 03:03:57;;;;;;;3.33;2.97;;;;;;;18.48;63.30;100990.91;4994969;28;20026;-72
2021/09/06 03:06:23;;;;;;;3.25;3.00;;;;;;;18.43;63.59;100982.72;4974824;28;20057;-71
2021/09/06 03:08:49;;;;;;;2.35;2.17;;;;;;;18.43;63.90;100992.97;4992625;28;20377;-71
2021/09/06 03:11:14;;;;;;;1.67;1.58;;;;;;;18.41;63.54;100989.69;4996400;28;20488;-72
2021/09/06 03:13:40;;;;;;;1.75;1.65;;;;;;;18.40;63.46;100982.50;4990142;28;20707;-71
2021/09/06 03:16:05;;;;;;;1.73;1.63;;;;;;;18.37;63.88;100985.88;4989050;28;20034;-72
2021/09/06 03:18:31;;;;;;;2.00;1.90;;;;;;;18.33;63.82;100987.63;4994430;28;20427;-72
2021/09/06 03:20:58;;;;;;;1.48;1.45;;;;;;;18.28;63.50;100975.53;4974515;28;20046;-71
2021/09/06 03:23:23;;;;;;;1.17;1.17;;;;;;;18.25;63.31;100981.66;4974464;28;22187;-71
2021/09/06 03:25:49;;;;;;;1.45;1.38;;;;;;;18.20;63.85;100978.97;4993164;28;20030;-72
2021/09/06 03:28:14;;;;;;;1.60;1.50;;;;;;;18.19;63.35;100974.56;4974106;28;20530;-72
2021/09/06 03:30:39;;;;;;;1.83;1.73;;;;;;;18.17;63.75;100979.59;4997113;28;20531;-72
2021/09/06 03:33:05;;;;;;;1.55;1.50;;;;;;;18.16;63.65;100977.94;4972895;28;20034;-72
2021/09/06 03:35:30;;;;;;;2.17;2.08;;;;;;;18.14;64.07;100983.78;4992041;28;20023;-75
2021/09/06 03:37:56;;;;;;;2.40;2.30;;;;;;;18.11;63.79;100984.38;4952561;28;20038;-77
2021/09/06 03:40:21;;;;;;;2.28;2.17;;;;;;;18.10;64.06;100990.22;4989881;28;20034;-76
2021/09/06 03:42:47;;;;;;;3.05;2.95;;;;;;;18.06;64.38;100980.88;5000818;28;20389;-76
2021/09/06 03:45:12;;;;;;;3.70;3.50;;;;;;;18.03;64.43;100984.25;4977463;28;20042;-77
2021/09/06 03:47:38;;;;;;;6.15;5.72;;;;;;;17.99;64.29;100983.22;4996412;28;20053;-75
2021/09/06 03:50:04;;;;;;;6.00;5.60;;;;;;;17.91;65.20;100988.31;4983085;28;20034;-71
2021/09/06 03:52:32;;;;;;;5.65;5.35;;;;;;;17.84;64.71;100990.63;4996715;28;20046;-72
2021/09/06 03:54:57;;;;;;;4.78;4.47;;;;;;;17.75;65.04;100992.44;4985088;28;20050;-72
2021/09/06 03:57:23;;;;;;;2.60;2.50;;;;;;;17.66;65.28;100983.19;4987463;28;20022;-71
2021/09/06 03:59:48;;;;;;;2.33;2.22;;;;;;;17.61;64.87;100981.31;4990103;28;20088;-72
2021/09/06 04:02:14;;;;;;;1.40;1.40;;;;;;;17.58;64.56;100979.97;4991663;28;20034;-72
2021/09/06 04:04:39;;;;;;;5.68;2.55;;;;;;;17.54;64.90;100973.38;4990121;28;20026;-72
2021/09/06 04:07:05;;;;;;;1.42;1.40;;;;;;;17.49;64.92;100967.91;4976116;28;20035;-73
2021/09/06 04:09:30;;;;;;;2.80;2.60;;;;;;;17.44;65.31;100971.59;4954364;28;20030;-71
2021/09/06 04:11:56;;;;;;;3.15;2.95;;;;;;;17.40;65.41;100969.72;4990494;28;20035;-72
2021/09/06 04:14:23;;;;;;;5.47;5.18;;;;;;;17.35;65.71;100976.16;4984706;28;20030;-71
2021/09/06 04:16:49;;;;;;;7.32;6.82;;;;;;;17.28;65.67;100975.69;4991274;28;20026;-73
2021/09/06 04:19:14;;;;;;;6.00;5.60;;;;;;;17.20;65.80;100974.44;4996878;28;20057;-71
2021/09/06 04:21:40;;;;;;;5.10;4.80;;;;;;;17.17;65.93;100986.09;4973067;28;20050;-72
2021/09/06 04:24:05;;;;;;;7.28;6.72;;;;;;;17.10;66.54;100988.38;4995375;28;20496;-70
2021/09/06 04:26:31;;;;;;;10.70;7.75;;;;;;;17.01;66.35;100984.63;4991941;28;20061;-72
2021/09/06 04:28:56;;;;;;;7.78;7.28;;;;;;;16.94;66.97;100982.22;4994953;28;20031;-73
2021/09/06 04:31:21;;;;;;;8.07;7.28;;;;;;;16.92;67.26;100990.81;4959422;28;20039;-73
2021/09/06 04:33:47;;;;;;;5.60;5.30;;;;;;;16.91;67.29;100996.63;4957844;28;20034;-75
2021/09/06 04:36:12;;;;;;;3.97;3.78;;;;;;;16.86;67.30;100991.13;4987877;28;20554;-74
2021/09/06 04:38:38;;;;;;;5.75;5.28;;;;;;;16.87;67.25;100990.03;4998224;28;20399;-74
2021/09/06 04:41:03;;;;;;;5.35;5.05;;;;;;;16.85;67.58;100984.78;4998033;28;20779;-72
2021/09/06 04:43:29;;;;;;;10.88;5.63;;;;;;;16.80;67.69;100986.78;4996610;28;20049;-72
2021/09/06 04:45:54;;;;;;;6.30;5.80;;;;;;;16.75;67.85;100984.91;4997629;28;20022;-71
2021/09/06 04:48:20;;;;;;;6.30;5.90;;;;;;;16.73;67.54;100981.59;4983787;28;20044;-72
2021/09/06 04:50:45;;;;;;;5.82;5.43;;;;;;;16.68;67.93;100988.03;4998345;28;20030;-72
2021/09/06 04:53:11;;;;;;;6.95;6.28;;;;;;;16.62;67.83;100986.44;4983064;28;20042;-73
2021/09/06 04:55:37;;;;;;;4.88;4.50;;;;;;;16.53;68.13;100983.50;4983499;28;20052;-73
2021/09/06 04:58:02;;;;;;;2.85;2.75;;;;;;;16.55;67.77;100992.28;5000723;28;20026;-74
2021/09/06 05:00:56;;;;;;;2.22;2.13;;;;;;;16.56;68.00;100996.72;4980104;28;20054;-73
2021/09/06 05:03:34;;;;;;;2.30;2.20;;;;;;;16.57;67.57;100998.38;4983372;28;20037;-73
2021/09/06 05:06:27;;;;;;;2.45;2.33;;;;;;;16.58;67.38;100991.72;4970276;28;20038;-73
2021/09/06 05:09:38;;;;;;;1.60;1.50;;;;;;;16.60;67.56;100993.38;4981838;28;20053;-73
2021/09/06 05:12:19;;;;;;;0.93;0.93;;;;;;;16.56;67.42;100993.94;4984481;28;20034;-68
2021/09/06 05:14:47;;;;;;;0.93;0.93;;;;;;;16.55;67.06;100992.28;4981586;28;20014;-70
2021/09/06 05:17:23;;;;;;;0.93;0.93;;;;;;;16.56;66.97;100988.44;4965623;28;20042;-69
2021/09/06 05:19:49;;;;;;;;;;;;;;;16.62;67.04;101003.00;4992978;28;20022;-71
2021/09/06 05:22:16;;;;;;;2.80;2.63;;;;;;;16.54;67.09;100995.34;4998609;28;19918;-71
2021/09/06 05:24:42;;;;;;;1.02;1.02;;;;;;;16.51;66.97;100996.75;4966708;28;20425;-73
2021/09/06 05:28:04;;;;;;;2.67;1.42;;;;;;;16.63;66.85;101006.56;4978915;28;20129;-71
2021/09/06 05:30:43;;;;;;;2.28;2.15;;;;;;;16.61;67.17;101012.41;4979523;28;20034;-72
2021/09/06 05:36:10;;;;;;;3.03;2.92;;;;;;;16.50;67.19;101000.66;5105711;23;20057;-69
2021/09/06 05:38:36;;;;;;;2.30;2.20;;;;;;;16.57;67.30;101012.16;5013577;28;20030;-71
2021/09/06 05:41:01;;;;;;;2.55;2.35;;;;;;;16.62;66.99;101021.50;5002658;28;20037;-71
2021/09/06 05:43:27;;;;;;;2.65;2.55;;;;;;;16.63;67.23;101031.44;4984311;28;20069;-71
2021/09/06 05:45:52;;;;;;;2.45;2.28;;;;;;;16.62;66.97;101027.00;5001743;28;20026;-71
2021/09/06 05:48:17;;;;;;;2.72;1.85;;;;;;;16.60;67.12;101015.44;5014530;28;20443;-71
2021/09/06 05:50:43;;;;;;;1.30;1.30;;;;;;;16.61;67.33;101022.63;5015761;28;20038;-71
2021/09/06 05:53:09;;;;;;;0.65;0.65;;;;;;;16.61;67.22;101028.97;5020213;28;20034;-70
2021/09/06 05:55:34;;;;;;;0.98;0.98;;;;;;;16.60;67.25;101027.31;5014201;28;20105;-71
2021/09/06 05:58:09;;;;;;;0.95;0.95;;;;;;;16.61;67.48;101030.91;5016989;28;20037;-73
2021/09/06 06:01:07;;;;;;;1.48;1.42;;;;;;;16.65;67.45;101034.75;4993846;28;20033;-75
2021/09/06 06:03:34;;;;;;;1.00;1.00;;;;;;;16.66;67.36;101028.06;5002094;28;20038;-72
2021/09/06 06:06:08;;;;;;;0.93;0.93;;;;;;;16.69;67.29;101033.00;4987066;28;20045;-71
2021/09/06 06:08:35;;;;;;;1.60;1.52;;;;;;;16.77;67.35;101045.38;5001637;28;20079;-73
2021/09/06 06:11:09;;;;;;;0.77;0.77;;;;;;;16.77;67.21;101037.91;4988662;28;20507;-73
2021/09/06 06:13:38;;;;;;;0.73;0.73;;;;;;;16.85;67.21;101045.56;5006468;28;20112;-73
2021/09/06 06:16:04;;;;;;;1.05;1.02;;;;;;;16.90;67.24;101053.81;4971873;28;20034;-73
2021/09/06 06:18:30;;;;;;;3.15;2.95;;;;;;;16.99;67.34;101056.75;4972570;28;20022;-73
2021/09/06 06:20:56;;;;;;;4.88;4.47;;;;;;;17.03;67.25;101057.00;4976772;28;20034;-72
2021/09/06 06:23:22;;;;;;;5.20;4.80;;;;;;;17.02;67.39;101055.34;5005051;28;20049;-72
2021/09/06 06:26:14;;;;;;;4.28;4.07;;;;;;;17.05;67.22;101061.09;4988232;28;20037;-73
2021/09/06 06:28:41;;;;;;;4.13;3.92;;;;;;;17.10;67.80;101063.81;4991143;28;20030;-73
2021/09/06 06:31:07;;;;;;;4.53;4.30;;;;;;;17.12;67.51;101063.50;4976143;28;20557;-70
2021/09/06 06:33:56;;;;;;;3.38;3.22;;;;;;;17.19;67.81;101066.75;5001615;28;20038;-72
2021/09/06 06:36:22;;;;;;;1.73;1.63;;;;;;;17.26;67.63;101069.16;5011659;28;20122;-73
2021/09/06 06:38:49;;;;;;;1.15;1.13;;;;;;;17.38;67.49;101071.50;5013492;28;20255;-73
2021/09/06 06:41:15;;;;;;;1.33;1.23;;;;;;;17.51;67.42;101073.53;4999736;28;20081;-73
2021/09/06 06:43:42;;;;;;;1.55;0.80;;;;;;;17.57;67.48;101061.28;4995888;28;20034;-73
2021/09/06 06:46:07;;;;;;;1.50;1.50;;;;;;;17.75;67.07;101056.03;5004597;28;20025;-78
2021/09/06 06:48:35;;;;;;;1.08;1.08;;;;;;;17.94;66.86;101065.19;5022877;28;20038;-75
2021/09/06 06:51:01;;;;;;;0.65;0.65;;;;;;;18.18;66.23;101069.81;4974747;28;20033;-73
2021/09/06 06:53:26;;;;;;;0.50;0.50;;;;;;;18.39;66.50;101073.03;5018722;28;20056;-74
2021/09/06 06:55:52;;;;;;;0.60;0.60;;;;;;;18.59;65.49;101068.28;5015794;28;20441;-75
2021/09/06 06:58:17;;;;;;;0.55;0.55;;;;;;;18.78;65.18;101065.44;5003279;28;20031;-74
2021/09/06 07:00:45;;;;;;;0.73;0.73;;;;;;;18.95;64.76;101068.47;4997162;28;20036;-75
2021/09/06 07:03:11;;;;;;;0.60;0.60;;;;;;;19.12;64.88;101072.56;5002844;28;20037;-75
2021/09/06 07:05:36;;;;;;;1.00;0.77;;;;;;;19.26;65.20;101076.16;4969111;28;20034;-73
2021/09/06 07:08:02;;;;;;;1.48;0.63;;;;;;;19.42;64.58;101068.34;4995521;28;20037;-73
2021/09/06 07:10:38;;;;;;;1.23;1.23;;;;;;;19.56;63.75;101073.84;4983953;28;20096;-72
2021/09/06 07:13:04;;;;;;;0.77;0.77;;;;;;;19.69;63.69;101077.75;4982820;28;20121;-71
2021/09/06 07:15:32;;;;;;;0.65;0.65;;;;;;;19.80;64.18;101058.91;5012069;28;20053;-72
2021/09/06 07:18:01;;;;;;;0.75;0.65;;;;;;;19.97;63.97;101067.41;5019020;28;20085;-71
2021/09/06 07:20:27;;;;;;;0.63;0.60;;;;;;;20.12;63.81;101071.78;5015327;28;20026;-72
2021/09/06 07:22:53;;;;;;;1.08;1.08;;;;;;;20.29;63.30;101073.03;5017393;28;20056;-72
2021/09/06 07:25:19;;;;;;;0.90;0.90;;;;;;;20.49;62.82;101077.25;5015612;28;20030;-71
2021/09/06 07:27:44;;;;;;;1.40;0.65;;;;;;;20.60;63.14;101078.59;4997145;28;20034;-70
2021/09/06 07:30:10;;;;;;;0.60;0.60;;;;;;;20.79;62.79;101083.97;4999529;28;20097;-69
2021/09/06 07:32:36;;;;;;;1.77;0.93;;;;;;;20.93;62.64;101083.88;5017636;28;20034;-69
2021/09/06 07:35:03;;;;;;;0.75;0.75;;;;;;;21.05;62.24;101086.06;4996390;28;20523;-72
2021/09/06 07:37:30;;;;;;;0.98;0.98;;;;;;;21.14;62.36;101086.09;5011154;28;20494;-71
2021/09/06 07:39:59;;;;;;;0.65;0.65;;;;;;;21.26;61.64;101089.06;4991886;28;20023;-72
2021/09/06 07:42:24;;;;;;;0.80;0.73;;;;;;;21.36;61.38;101088.78;5017281;28;20484;-71
2021/09/06 07:44:50;;;;;;;0.75;0.75;;;;;;;21.45;61.48;101092.41;5017008;28;20040;-71
2021/09/06 07:47:16;;;;;;;0.70;0.70;;;;;;;21.51;61.03;101095.03;4983386;28;20699;-71
2021/09/06 07:49:43;;;;;;;1.40;1.30;;;;;;;21.54;61.03;101086.06;5018338;28;20041;-71
2021/09/06 07:52:09;;;;;;;1.05;1.05;;;;;;;21.57;60.99;101088.19;5006152;28;20036;-70
2021/09/06 07:54:38;;;;;;;1.00;1.00;;;;;;;21.66;60.85;101091.00;5013094;28;20472;-71
2021/09/06 07:57:04;;;;;;;0.65;0.65;;;;;;;21.73;60.62;101097.72;4998966;28;20057;-70
2021/09/06 07:59:29;;;;;;;0.77;0.77;;;;;;;21.83;60.49;101096.59;5010683;28;20372;-70
2021/09/06 08:01:55;;;;;;;0.80;0.80;;;;;;;21.94;60.13;101097.06;4998529;28;20092;-71
2021/09/06 08:04:21;;;;;;;1.40;1.10;;;;;;;22.04;60.19;101095.94;5001696;28;20026;-69
2021/09/06 08:06:47;;;;;;;1.70;1.60;;;;;;;22.14;60.04;101099.19;5019423;28;20034;-70
2021/09/06 08:09:13;;;;;;;1.88;1.75;;;;;;;22.25;60.20;101102.50;5014646;28;20044;-73
2021/09/06 08:11:45;;;;;;;1.40;1.35;;;;;;;22.40;60.12;101114.28;5012343;28;20428;-69
2021/09/06 08:14:11;;;;;;;3.08;2.88;;;;;;;22.57;59.92;101110.66;4985058;28;20026;-72
2021/09/06 08:16:36;;;;;;;2.05;1.95;;;;;;;22.81;59.50;101112.91;4997410;28;20121;-71
2021/09/06 08:19:02;;;;;;;4.22;3.92;;;;;;;23.04;59.79;101113.44;5004680;28;20038;-69
2021/09/06 08:21:27;;;;;;;2.00;1.90;;;;;;;23.32;58.88;101113.06;5004133;28;20798;-71
2021/09/06 08:23:53;;;;;;;3.40;3.20;;;;;;;23.64;59.15;101113.50;5011676;28;20409;-67
2021/09/06 08:26:21;;;;;;;3.65;3.45;;;;;;;23.98;59.29;101108.88;5008249;28;20022;-70
2021/09/06 08:28:47;;;;;;;3.42;3.28;;;;;;;24.30;58.82;101117.59;5006721;28;20440;-70
2021/09/06 08:31:13;;;;;;;3.17;3.08;;;;;;;24.59;58.49;101125.13;4988311;28;20041;-70
2021/09/06 08:33:38;;;;;;;3.10;2.80;;;;;;;24.93;58.16;101131.47;4980266;28;20029;-70
2021/09/06 08:36:14;;;;;;;3.58;3.38;;;;;;;25.21;57.82;101134.41;4979885;28;20135;-71
2021/09/06 08:38:40;;;;;;;;;;;;;;;25.70;56.99;101132.78;4976365;28;20030;-71
2021/09/06 08:41:08;;;;;;;2.00;1.90;;;;;;;25.74;56.51;101128.13;4977350;28;19918;-70
2021/09/06 08:43:34;;;;;;;3.13;2.92;;;;;;;25.99;55.87;101136.47;4990446;28;20030;-70
2021/09/06 08:46:00;;;;;;;4.55;4.22;;;;;;;26.21;55.44;101133.19;4946590;28;20153;-71
2021/09/06 08:48:26;;;;;;;4.13;3.92;;;;;;;26.48;55.45;101136.31;4994137;28;20110;-70
2021/09/06 08:50:53;;;;;;;5.38;5.05;;;;;;;26.77;54.65;101139.94;4975798;28;20038;-70
2021/09/06 08:53:20;;;;;;;5.35;4.95;;;;;;;27.08;54.08;101146.75;5000744;28;20027;-71
2021/09/06 08:55:46;;;;;;;6.15;5.85;;;;;;;27.28;53.69;101145.66;4982251;28;20374;-68
2021/09/06 08:58:11;;;;;;;6.78;6.03;;;;;;;27.47;53.29;101146.97;4985410;28;20030;-70
2021/09/06 09:00:37;;;;;;;5.50;4.38;;;;;;;27.69;53.00;101149.06;5001441;28;20054;-70
2021/09/06 09:03:11;;;;;;;5.47;5.07;;;;;;;27.87;52.19;101155.09;4956565;28;20045;-70
2021/09/06 09:05:37;;;;;;;5.65;5.38;;;;;;;28.01;52.00;101165.88;4990626;28;20038;-72
2021/09/06 09:08:03;;;;;;;4.75;4.45;;;;;;;28.19;51.51;101160.63;4972861;28;20026;-70
2021/09/06 09:10:31;;;;;;;4.35;4.07;;;;;;;28.35;51.54;101168.19;4979327;28;20049;-72
2021/09/06 09:13:08;;;;;;;3.10;3.00;;;;;;;28.57;51.27;101175.06;4992955;28;20022;-73
2021/09/06 09:15:36;;;;;;;3.80;3.60;;;;;;;28.67;50.71;101180.13;4995255;28;20026;-70
2021/09/06 09:18:04;;;;;;;2.70;2.60;;;;;;;28.73;50.78;101173.00;4975966;28;20384;-72
2021/09/06 09:20:43;;;;;;;3.78;3.58;;;;;;;28.94;50.70;101174.56;4986508;28;20050;-70
2021/09/06 09:23:09;;;;;;;2.35;2.25;;;;;;;28.99;50.57;101168.66;4988696;28;20039;-71
2021/09/06 09:25:36;;;;;;;2.50;2.22;;;;;;;29.14;50.14;101169.72;4976863;28;20026;-69
2021/09/06 09:28:02;;;;;;;2.63;2.53;;;;;;;29.30;49.82;101172.44;5004478;28;20350;-69
2021/09/06 09:30:33;;;;;;;2.05;1.95;;;;;;;29.49;49.97;101174.34;5005356;28;20037;-69
2021/09/06 09:33:09;;;;;;;2.25;2.15;;;;;;;29.66;49.98;101170.19;4998697;28;20050;-71
2021/09/06 09:35:35;;;;;;;2.22;2.13;;;;;;;29.83;49.41;101166.03;4986054;28;20070;-72
2021/09/06 09:38:05;;;;;;;1.75;1.75;;;;;;;29.93;48.87;101154.09;4991581;28;20559;-69
2021/09/06 09:40:36;;;;;;;4.10;3.90;;;;;;;30.02;47.99;101158.63;4988975;28;20045;-70
2021/09/06 09:43:03;;;;;;;3.78;3.60;;;;;;;30.04;48.18;101165.53;4973498;28;20031;-70
2021/09/06 09:45:29;;;;;;;2.80;2.60;;;;;;;30.16;48.42;101160.84;4998818;28;20055;-69
2021/09/06 09:47:57;;;;;;;2.58;2.47;;;;;;;30.30;47.44;101166.66;4991585;28;20037;-68
2021/09/06 09:50:25;;;;;;;2.97;2.78;;;;;;;30.46;47.67;101170.09;4992199;28;20550;-69
2021/09/06 09:52:52;;;;;;;2.00;1.90;;;;;;;30.74;47.78;101179.28;4990176;28;20457;-70
2021/09/06 09:55:18;;;;;;;2.53;2.42;;;;;;;30.95;46.70;101175.88;4985564;28;20045;-71
2021/09/06 09:57:44;;;;;;;3.17;3.00;;;;;;;31.08;46.42;101176.44;4991688;28;20014;-70
2021/09/06 10:00:12;;;;;;;2.25;2.15;;;;;;;31.24;46.67;101174.13;4987727;28;20046;-71
2021/09/06 10:02:42;;;;;;;3.78;3.58;;;;;;;31.42;45.54;101174.28;5006466;28;20030;-71
2021/09/06 10:05:10;;;;;;;3.67;3.50;;;;;;;31.59;45.28;101172.03;4987878;28;20030;-72
2021/09/06 10:07:39;;;;;;;3.50;3.40;;;;;;;31.87;45.25;101167.75;4981058;28;20042;-71
2021/09/06 10:10:18;;;;;;;2.67;2.58;;;;;;;32.23;44.94;101165.13;4988332;28;20030;-70
2021/09/06 10:13:07;;;;;;;2.17;2.08;;;;;;;32.56;44.60;101171.72;4985011;28;20354;-71
2021/09/06 10:15:34;;;;;;;1.48;1.48;;;;;;;33.04;44.09;101169.38;4984946;28;20073;-70
2021/09/06 10:18:19;;;;;;;2.30;2.20;;;;;;;33.67;42.99;101177.47;4989649;28;20103;-71
2021/09/06 10:20:47;;;;;;;2.40;2.30;;;;;;;34.01;42.23;101164.88;4990140;28;20026;-72
2021/09/06 10:23:13;;;;;;;2.45;2.33;;;;;;;34.49;41.40;101164.31;4997311;28;20031;-70
2021/09/06 10:25:41;;;;;;;2.72;2.63;;;;;;;34.98;40.48;101163.59;4984155;28;20053;-70
2021/09/06 10:28:09;;;;;;;1.95;1.85;;;;;;;35.41;40.26;101171.78;4990953;28;20030;-72
2021/09/06 10:30:40;;;;;;;1.60;1.60;;;;;;;36.00;39.53;101167.94;4992418;28;20117;-74
2021/09/06 10:33:08;;;;;;;2.88;2.67;;;;;;;36.40;38.09;101151.19;4988568;28;20045;-72
2021/09/06 10:35:35;;;;;;;5.97;5.55;;;;;;;36.67;35.37;101153.25;5008138;28;20041;-74
2021/09/06 10:38:00;;;;;;;4.18;3.97;;;;;;;36.91;36.42;101162.69;4981458;28;20046;-74
2021/09/06 10:40:29;;;;;;;3.83;3.65;;;;;;;37.19;34.72;101163.44;4999370;28;20042;-73
2021/09/06 10:42:54;;;;;;;2.72;2.63;;;;;;;37.64;35.18;101165.91;4991215;28;20029;-71
2021/09/06 10:45:21;;;;;;;2.08;1.98;;;;;;;38.33;34.70;101168.25;4986821;28;20030;-72
2021/09/06 10:47:58;;;;;;;1.90;1.80;;;;;;;39.14;34.15;101162.34;4988024;28;20065;-74
2021/09/06 10:50:24;;;;;;;1.30;1.30;;;;;;;39.86;32.81;101166.16;4982793;28;20105;-72
2021/09/06 10:52:50;;;;;;;0.88;0.88;;;;;;;40.56;32.08;101160.84;4987233;28;20052;-72
2021/09/06 10:55:18;;;;;;;2.95;2.75;;;;;;;41.19;31.44;101164.91;4988398;28;20026;-74
2021/09/06 10:57:46;;;;;;;2.03;1.38;;;;;;;41.67;30.50;101157.06;4983849;28;20026;-74
2021/09/06 11:00:20;;;;;;;1.30;1.30;;;;;;;42.16;30.02;101152.00;4985800;28;20026;-74
2021/09/06 11:02:48;;;;;;;4.53;1.50;;;;;;;42.29;29.00;101149.91;5003192;28;20029;-75
2021/09/06 11:05:24;;;;;;;2.10;2.00;;;;;;;42.26;28.97;101150.03;4982848;28;20026;-74
2021/09/06 11:07:51;;;;;;;1.55;1.48;;;;;;;42.56;29.06;101152.06;4991989;28;20065;-72
2021/09/06 11:10:20;;;;;;;1.23;1.23;;;;;;;43.27;28.72;101154.53;4985263;28;20061;-70
2021/09/06 11:12:55;;;;;;;1.15;1.15;;;;;;;44.09;27.71;101158.72;4984762;28;20035;-70
2021/09/06 11:15:32;;;;;;;0.90;0.90;;;;;;;44.97;27.29;101160.59;4988529;28;20032;-70
2021/09/06 11:18:06;;;;;;;0.70;0.70;;;;;;;45.72;26.46;101151.41;4984708;28;20053;-70
2021/09/06 11:20:36;;;;;;;1.00;1.00;;;;;;;46.40;25.16;101149.78;4991027;28;20032;-71
2021/09/06 11:23:04;;;;;;;1.30;1.30;;;;;;;46.90;24.57;101143.94;4988790;28;20105;-70
2021/09/06 11:25:32;;;;;;;0.98;0.98;;;;;;;47.40;24.19;101148.03;4991090;28;20044;-71
2021/09/06 11:28:12;;;;;;;1.13;1.13;;;;;;;47.84;23.20;101146.94;4993547;28;20041;-71
2021/09/06 11:30:41;;;;;;;1.40;1.40;;;;;;;47.59;22.39;101145.63;4992196;28;20073;-71
2021/09/06 11:33:15;;;;;;;1.10;1.10;;;;;;;47.41;22.77;101146.75;4986849;28;20362;-71